Delmar, Delaware
Current Conditions -  °F | °C
As of 12:54 PM on Friday 28 Nov 2014 (Local Time) from KSBY Reporting Station
Scattered Clouds Scattered Clouds  
Wind Chill: 35°   Ceiling: Unl
Heat Index: 42°   Visibility: 10mi
Dew Point: 20°   Wind: 15mph
Humidity: 41%   Direction: 340°NNW
Pressure: 30.23"   Gusts: 26mph
Location:  38.46°N, 75.58°W
Report Text: KSBY 281754Z 34013G23KT 10SM SCT050 06/M07 A3023 RMK AO2 SLP238 T00561067 10067 20011 57016
Loading
Personal Weather Stations






























Interactive Weather Map New forecast layout! Learn more

10-Day Weather Forecast

Advertisements
Track Severe Weather on mobile